Time;durP1;ratioP1;P1;durP2;ratioP2;P2;SDS_P1;SDS_P2;PMS_P1;PMS_P2;Temp;Humidity;BMP_temperature;BMP_pressure;BME280_temperature;BME280_humidity;BME280_pressure;Samples;Min_cycle;Max_cycle;Signal;HPM_P1;HPM_P2
2022/06/10 00:00:57;;;;;;;8.70;5.40;;;11.70;99.90;;;;;;5032489;28;20036;-28
2022/06/10 00:03:25;;;;;;;7.80;4.90;;;11.60;99.90;;;;;;5052761;28;20040;-28
2022/06/10 00:05:53;;;;;;;10.88;5.75;;;11.60;99.90;;;;;;5051207;28;20041;-27
2022/06/10 00:08:23;;;;;;;8.05;5.60;;;11.60;99.90;;;;;;5046906;28;20045;-27
2022/06/10 00:10:50;;;;;;;9.02;5.38;;;11.60;99.90;;;;;;5047432;28;20068;-28
2022/06/10 00:13:17;;;;;;;9.60;5.03;;;11.60;99.90;;;;;;5047218;28;20037;-28
2022/06/10 00:15:43;;;;;;;9.25;5.70;;;11.50;99.90;;;;;;5052088;28;20071;-28
2022/06/10 00:18:10;;;;;;;6.47;5.60;;;11.50;99.90;;;;;;5049941;28;20037;-28
2022/06/10 00:20:37;;;;;;;6.15;5.53;;;11.40;99.90;;;;;;5052775;28;20040;-28
2022/06/10 00:23:03;;;;;;;7.53;5.60;;;11.40;99.90;;;;;;5051092;28;20423;-28
2022/06/10 00:25:29;;;;;;;9.27;6.18;;;11.40;99.90;;;;;;5051785;28;20115;-28
2022/06/10 00:27:55;;;;;;;7.35;5.35;;;11.40;99.90;;;;;;5051553;28;20527;-28
2022/06/10 00:30:25;;;;;;;8.10;5.82;;;11.40;99.90;;;;;;5050256;28;20040;-28
2022/06/10 00:32:51;;;;;;;5.95;5.13;;;11.30;99.90;;;;;;5047398;28;20032;-28
2022/06/10 00:35:18;;;;;;;10.25;6.22;;;11.30;99.90;;;;;;5049417;28;20037;-28
2022/06/10 00:37:44;;;;;;;8.43;5.45;;;11.30;99.90;;;;;;5041809;28;20108;-27
2022/06/10 00:40:16;;;;;;;6.40;5.65;;;11.30;99.90;;;;;;5049423;28;20175;-27
2022/06/10 00:42:42;;;;;;;7.55;5.65;;;11.20;99.90;;;;;;5040353;28;20109;-28
2022/06/10 00:45:47;;;;;;;8.68;6.10;;;11.20;99.90;;;;;;5049253;28;20123;-28
2022/06/10 00:48:36;;;;;;;7.25;5.80;;;11.20;99.90;;;;;;5049531;28;20048;-28
2022/06/10 00:51:14;;;;;;;6.80;5.70;;;11.20;99.90;;;;;;5052644;28;20045;-28
2022/06/10 00:53:41;;;;;;;6.78;5.97;;;11.10;99.90;;;;;;5052559;28;20029;-28
2022/06/10 00:56:11;;;;;;;8.88;6.30;;;11.10;99.90;;;;;;5048913;28;20072;-28
2022/06/10 00:59:01;;;;;;;6.65;6.00;;;11.00;99.90;;;;;;5044820;28;20040;-28
2022/06/10 01:01:30;;;;;;;8.35;6.28;;;11.00;99.90;;;;;;5048932;28;20041;-28
2022/06/10 01:03:56;;;;;;;14.15;5.40;;;11.00;99.90;;;;;;5052503;28;20040;-28
2022/06/10 01:06:22;;;;;;;11.02;6.43;;;11.00;99.90;;;;;;5052139;28;20190;-28
2022/06/10 01:08:51;;;;;;;7.43;6.38;;;10.90;99.90;;;;;;5033357;28;20102;-28
2022/06/10 01:11:41;;;;;;;12.35;6.60;;;10.90;99.90;;;;;;5050446;28;20487;-28
2022/06/10 01:14:21;;;;;;;7.25;5.63;;;10.90;99.90;;;;;;5042435;28;20509;-28
2022/06/10 01:17:08;;;;;;;9.43;6.65;;;10.90;99.90;;;;;;5051278;28;20029;-28
2022/06/10 01:20:12;;;;;;;7.93;6.65;;;10.80;99.90;;;;;;5043215;28;20039;-28
2022/06/10 01:22:57;;;;;;;11.68;6.90;;;10.80;99.90;;;;;;5044467;28;20403;-28
2022/06/10 01:25:46;;;;;;;10.38;7.18;;;10.80;99.90;;;;;;5049992;28;20041;-28
2022/06/10 01:28:24;;;;;;;11.65;6.35;;;10.80;99.90;;;;;;5046532;28;20522;-28
2022/06/10 01:31:04;;;;;;;11.57;6.45;;;10.80;99.90;;;;;;5050265;28;20134;-28
2022/06/10 01:33:39;;;;;;;8.95;6.25;;;10.80;99.90;;;;;;5033326;28;20037;-28
2022/06/10 01:36:28;;;;;;;10.32;6.35;;;10.80;99.90;;;;;;5045871;28;20041;-28
2022/06/10 01:39:05;;;;;;;8.55;6.18;;;10.80;99.90;;;;;;5043794;28;20458;-28
2022/06/10 01:41:49;;;;;;;10.93;6.63;;;10.80;99.90;;;;;;5046595;28;20040;-28
2022/06/10 01:44:47;;;;;;;9.60;6.13;;;10.80;99.90;;;;;;5048377;28;20056;-28
2022/06/10 01:48:03;;;;;;;9.18;6.57;;;10.90;99.90;;;;;;5011703;28;20057;-28
2022/06/10 01:50:49;;;;;;;8.02;5.90;;;10.90;99.90;;;;;;4969836;28;20038;-28
2022/06/10 01:53:40;;;;;;;8.77;6.40;;;10.90;99.90;;;;;;4962942;28;20278;-28
2022/06/10 01:56:13;;;;;;;10.20;6.82;;;11.00;99.90;;;;;;5021053;28;20136;-28
2022/06/10 01:59:23;;;;;;;9.15;6.85;;;10.90;99.90;;;;;;5043031;28;20060;-28
2022/06/10 02:02:07;;;;;;;8.32;6.18;;;10.90;99.90;;;;;;5030075;28;20077;-29
2022/06/10 02:04:38;;;;;;;7.80;6.05;;;10.90;99.90;;;;;;5043060;28;20166;-28
2022/06/10 02:07:09;;;;;;;8.57;5.97;;;10.90;99.90;;;;;;5051050;28;20064;-28
2022/06/10 02:09:50;;;;;;;8.32;6.07;;;10.90;99.90;;;;;;5050028;28;20037;-28
2022/06/10 02:12:22;;;;;;;8.55;5.95;;;10.80;99.90;;;;;;5042814;28;20535;-28
2022/06/10 02:14:59;;;;;;;10.07;6.50;;;10.80;99.90;;;;;;5050549;28;20049;-28
2022/06/10 02:17:32;;;;;;;9.85;6.63;;;10.80;99.90;;;;;;5050717;28;20496;-28
2022/06/10 02:19:59;;;;;;;10.48;6.03;;;10.70;99.90;;;;;;5049885;28;20072;-28
2022/06/10 02:22:35;;;;;;;9.38;6.57;;;10.70;99.90;;;;;;5046989;28;20523;-28
2022/06/10 02:25:23;;;;;;;8.27;6.43;;;10.60;99.90;;;;;;5048316;28;20112;-28
2022/06/10 02:27:57;;;;;;;7.65;6.57;;;10.60;99.90;;;;;;5044350;28;20376;-28
2022/06/10 02:30:29;;;;;;;10.05;6.68;;;10.50;99.90;;;;;;5044804;28;20490;-28
2022/06/10 02:32:57;;;;;;;10.40;6.57;;;10.50;99.90;;;;;;5050841;28;20385;-28
2022/06/10 02:35:27;;;;;;;7.13;5.57;;;10.50;99.90;;;;;;5043656;28;20050;-28
2022/06/10 02:38:20;;;;;;;8.30;5.88;;;10.50;99.90;;;;;;5029887;28;20496;-28
2022/06/10 02:40:53;;;;;;;9.55;6.32;;;10.50;99.90;;;;;;5044124;28;20034;-28
2022/06/10 02:43:44;;;;;;;8.43;5.65;;;10.50;99.90;;;;;;5049625;28;20040;-26
2022/06/10 02:46:33;;;;;;;9.85;5.95;;;10.40;99.90;;;;;;5045097;28;20048;-26
2022/06/10 02:49:12;;;;;;;10.20;6.50;;;10.40;99.90;;;;;;5052493;28;20475;-26
2022/06/10 02:51:38;;;;;;;10.13;6.20;;;10.40;99.90;;;;;;5051864;28;20068;-26
2022/06/10 02:54:11;;;;;;;10.07;6.18;;;10.40;99.90;;;;;;5035681;28;20492;-26
2022/06/10 02:56:36;;;;;;;10.07;5.85;;;10.40;99.90;;;;;;5040851;28;20385;-26
2022/06/10 03:02:18;;;;;;;12.13;6.40;;;10.30;99.90;;;;;;5037044;28;20034;-26
2022/06/10 03:04:47;;;;;;;10.40;6.60;;;10.30;99.90;;;;;;5041037;28;20041;-27
2022/06/10 03:07:18;;;;;;;10.18;6.75;;;10.30;99.90;;;;;;5044537;28;20098;-26
2022/06/10 03:09:58;;;;;;;9.85;6.95;;;10.30;99.90;;;;;;5055219;28;20488;-26
2022/06/10 03:12:59;;;;;;;9.07;6.82;;;10.30;99.90;;;;;;5054983;28;20045;-26
2022/06/10 03:15:45;;;;;;;8.75;6.82;;;10.30;99.90;;;;;;5046083;28;20041;-26
2022/06/10 03:18:29;;;;;;;10.52;6.43;;;10.30;99.90;;;;;;5052973;28;20033;-26
2022/06/10 03:21:11;;;;;;;7.90;6.72;;;10.30;99.90;;;;;;5054920;28;20484;-26
2022/06/10 03:23:52;;;;;;;10.48;6.75;;;10.30;99.90;;;;;;5054776;28;20484;-28
2022/06/10 03:26:42;;;;;;;11.35;7.68;;;10.30;99.90;;;;;;5053353;28;20047;-28
2022/06/10 03:29:39;;;;;;;18.80;7.15;;;10.30;99.90;;;;;;5051343;28;20037;-28
2022/06/10 03:32:12;;;;;;;9.75;6.70;;;10.30;99.90;;;;;;5047786;28;20049;-28
2022/06/10 03:34:42;;;;;;;8.02;6.55;;;10.30;99.90;;;;;;5053066;28;20037;-28
2022/06/10 03:37:11;;;;;;;9.65;6.00;;;10.30;99.90;;;;;;5053302;28;20045;-28
2022/06/10 03:39:39;;;;;;;13.38;7.15;;;10.30;99.90;;;;;;5053181;28;20037;-29
2022/06/10 03:42:18;;;;;;;11.40;7.13;;;10.30;99.90;;;;;;5047061;28;20048;-28
2022/06/10 03:44:48;;;;;;;9.77;6.63;;;10.30;99.90;;;;;;5039929;28;20083;-28
2022/06/10 03:47:37;;;;;;;9.75;6.47;;;10.30;99.90;;;;;;5053536;28;20044;-28
2022/06/10 03:50:16;;;;;;;9.52;6.43;;;10.30;99.90;;;;;;5053306;28;20516;-29
2022/06/10 03:52:44;;;;;;;13.60;6.50;;;10.30;99.90;;;;;;5043956;28;20485;-28
2022/06/10 03:55:16;;;;;;;8.90;6.15;;;10.30;99.90;;;;;;5047328;28;20069;-28
2022/06/10 03:57:43;;;;;;;8.80;6.53;;;10.40;99.90;;;;;;5045989;28;20028;-28
2022/06/10 04:00:14;;;;;;;13.05;6.75;;;10.40;99.90;;;;;;5048072;28;20112;-28
2022/06/10 04:02:39;;;;;;;10.00;6.07;;;10.40;99.90;;;;;;5047978;28;20054;-28
2022/06/10 04:05:07;;;;;;;8.13;6.32;;;10.50;99.90;;;;;;5041015;28;20045;-28
2022/06/10 04:07:32;;;;;;;7.75;6.22;;;10.40;99.90;;;;;;5046113;28;20047;-28
2022/06/10 04:09:58;;;;;;;10.43;6.10;;;10.50;99.90;;;;;;5047570;28;20044;-28
2022/06/10 04:12:25;;;;;;;10.38;6.15;;;10.50;99.90;;;;;;5050974;28;20036;-28
2022/06/10 04:14:51;;;;;;;7.68;6.43;;;10.50;99.90;;;;;;5052227;28;20037;-29
2022/06/10 04:17:17;;;;;;;9.85;6.28;;;10.60;99.90;;;;;;5052906;28;20033;-28
2022/06/10 04:19:43;;;;;;;10.10;7.13;;;10.60;99.90;;;;;;5031059;28;20419;-28
2022/06/10 04:22:09;;;;;;;8.18;6.35;;;10.60;99.90;;;;;;5044454;28;20025;-28
2022/06/10 04:24:35;;;;;;;11.10;6.90;;;10.70;99.90;;;;;;5034341;28;20049;-28
2022/06/10 04:27:02;;;;;;;8.43;6.55;;;10.70;99.90;;;;;;5046113;28;20071;-29
2022/06/10 04:29:28;;;;;;;11.57;6.72;;;10.80;99.90;;;;;;5051816;28;20037;-28
2022/06/10 04:31:53;;;;;;;12.55;7.15;;;10.90;99.90;;;;;;5052683;28;20040;-28
2022/06/10 04:34:19;;;;;;;11.52;7.38;;;11.00;99.90;;;;;;5052490;28;20453;-28
2022/06/10 04:36:45;;;;;;;12.75;7.30;;;11.10;99.90;;;;;;5030924;28;20049;-28
2022/06/10 04:39:11;;;;;;;9.50;7.00;;;11.20;99.90;;;;;;5044154;28;20385;-29
2022/06/10 04:41:38;;;;;;;11.75;7.90;;;11.30;99.90;;;;;;5052002;28;20400;-28
2022/06/10 04:44:04;;;;;;;14.43;8.20;;;11.40;99.90;;;;;;5045691;28;20460;-29
2022/06/10 04:46:34;;;;;;;10.65;7.43;;;11.50;99.90;;;;;;5046035;28;20040;-29
2022/06/10 04:49:00;;;;;;;10.38;7.30;;;11.50;99.90;;;;;;5046387;28;20468;-29
2022/06/10 04:51:26;;;;;;;13.93;7.93;;;11.60;99.90;;;;;;5051733;28;20047;-29
2022/06/10 04:53:52;;;;;;;12.88;7.60;;;11.80;99.90;;;;;;5050354;28;20112;-29
2022/06/10 04:56:18;;;;;;;12.25;8.38;;;11.90;99.90;;;;;;5048586;28;20034;-29
2022/06/10 04:58:44;;;;;;;11.15;8.77;;;11.90;99.90;;;;;;5045932;28;20040;-29
2022/06/10 05:01:10;;;;;;;11.00;8.88;;;12.10;99.90;;;;;;5012210;28;20029;-29
2022/06/10 05:03:36;;;;;;;15.63;9.13;;;12.20;99.90;;;;;;5044499;28;20045;-29
2022/06/10 05:06:03;;;;;;;14.20;8.65;;;12.30;99.90;;;;;;5045158;28;20045;-29
2022/06/10 05:08:28;;;;;;;12.98;9.30;;;12.40;99.90;;;;;;5040973;28;20122;-29
2022/06/10 05:10:54;;;;;;;17.25;9.52;;;12.50;99.90;;;;;;5043900;28;20122;-29
2022/06/10 05:13:22;;;;;;;16.63;9.38;;;12.60;99.90;;;;;;5041281;28;20453;-30
2022/06/10 05:15:49;;;;;;;14.48;9.60;;;12.80;99.90;;;;;;5047731;28;20033;-29
2022/06/10 05:18:19;;;;;;;11.48;9.82;;;12.90;99.90;;;;;;5036343;28;20047;-29
2022/06/10 05:20:45;;;;;;;12.93;8.65;;;13.10;99.90;;;;;;5048784;28;20037;-29
2022/06/10 05:23:15;;;;;;;13.98;7.80;;;13.30;99.90;;;;;;5040915;28;20492;-29
2022/06/10 05:25:41;;;;;;;12.15;8.30;;;13.40;99.90;;;;;;5042097;28;20526;-29
2022/06/10 05:28:07;;;;;;;11.57;8.48;;;13.70;99.90;;;;;;5044450;28;20048;-29
2022/06/10 05:30:34;;;;;;;12.25;7.65;;;14.00;99.90;;;;;;5043635;28;20044;-29
2022/06/10 05:33:02;;;;;;;11.32;7.47;;;14.30;99.90;;;;;;5046072;28;20048;-29
2022/06/10 05:35:29;;;;;;;12.00;7.35;;;14.50;99.90;;;;;;5029450;28;20124;-29
2022/06/10 05:37:56;;;;;;;8.45;6.57;;;14.80;99.90;;;;;;5042868;28;20047;-29
2022/06/10 05:40:26;;;;;;;9.45;7.20;;;14.90;99.90;;;;;;5029964;28;20041;-29
2022/06/10 05:42:52;;;;;;;12.15;6.95;;;14.90;99.90;;;;;;5027845;28;20108;-29
2022/06/10 05:45:19;;;;;;;11.75;6.90;;;14.90;99.90;;;;;;5032918;28;20037;-29
2022/06/10 05:47:48;;;;;;;9.63;6.30;;;15.00;99.90;;;;;;5050264;28;20488;-29
2022/06/10 05:50:23;;;;;;;11.63;6.80;;;14.90;99.90;;;;;;5042019;28;20043;-29
2022/06/10 05:52:50;;;;;;;12.73;6.80;;;15.00;99.90;;;;;;5050541;28;20377;-29
2022/06/10 05:55:16;;;;;;;9.40;6.00;;;15.00;99.90;;;;;;5044334;28;20042;-29
2022/06/10 05:57:42;;;;;;;10.50;6.20;;;15.00;99.90;;;;;;5046139;28;20039;-29
2022/06/10 06:00:13;;;;;;;11.00;5.90;;;15.10;99.90;;;;;;5022681;28;20033;-29
2022/06/10 06:02:40;;;;;;;13.27;6.03;;;15.10;99.90;;;;;;5019766;28;20036;-29
2022/06/10 06:05:07;;;;;;;9.25;6.40;;;15.20;99.90;;;;;;5037334;28;20405;-29
2022/06/10 06:07:33;;;;;;;9.00;6.07;;;15.20;99.90;;;;;;5044419;28;20064;-29
2022/06/10 06:09:59;;;;;;;11.00;5.47;;;15.30;99.90;;;;;;5032700;28;20076;-29
2022/06/10 06:12:25;;;;;;;9.27;5.75;;;15.30;99.90;;;;;;5040466;28;20060;-29
2022/06/10 06:14:51;;;;;;;12.00;5.68;;;15.30;99.90;;;;;;5048151;28;20037;-29
2022/06/10 06:17:19;;;;;;;11.48;5.57;;;15.30;99.90;;;;;;5042056;28;20125;-29
2022/06/10 06:19:45;;;;;;;11.77;5.47;;;15.30;99.90;;;;;;5046314;28;20075;-29
2022/06/10 06:22:11;;;;;;;9.52;5.57;;;15.30;99.90;;;;;;5043792;28;20496;-29
2022/06/10 06:24:38;;;;;;;13.65;5.75;;;15.40;99.90;;;;;;5047120;28;20041;-29
2022/06/10 06:27:05;;;;;;;13.30;5.97;;;15.50;99.90;;;;;;5039122;28;20047;-30
2022/06/10 06:29:32;;;;;;;9.98;5.35;;;15.60;99.90;;;;;;5041578;28;20032;-29
2022/06/10 06:31:58;;;;;;;12.73;6.00;;;15.60;99.90;;;;;;5045317;28;20041;-29
2022/06/10 06:34:25;;;;;;;11.95;5.45;;;15.70;99.90;;;;;;5042906;28;20045;-29
2022/06/10 06:36:54;;;;;;;10.55;5.30;;;15.70;99.90;;;;;;5046324;28;20038;-29
2022/06/10 06:39:23;;;;;;;13.30;5.72;;;15.80;99.90;;;;;;5021884;28;20079;-29
2022/06/10 06:41:49;;;;;;;10.40;5.75;;;16.00;99.90;;;;;;5047663;28;20036;-29
2022/06/10 06:44:15;;;;;;;12.90;6.10;;;16.30;99.90;;;;;;5042381;28;20489;-29
2022/06/10 06:46:43;;;;;;;7.95;4.53;;;16.40;99.90;;;;;;5048029;28;20056;-30
2022/06/10 06:49:14;;;;;;;14.15;5.05;;;16.50;99.90;;;;;;5041260;28;20036;-29
2022/06/10 06:51:40;;;;;;;9.18;5.40;;;16.50;99.90;;;;;;5050587;28;20060;-29
2022/06/10 06:54:07;;;;;;;9.75;5.75;;;16.50;99.90;;;;;;5048109;28;20122;-29
2022/06/10 06:56:33;;;;;;;9.57;6.00;;;16.40;99.90;;;;;;5024626;28;20043;-29
2022/06/10 06:58:59;;;;;;;16.63;6.47;;;16.20;99.90;;;;;;5047000;28;20411;-29
2022/06/10 07:01:25;;;;;;;9.80;6.28;;;16.20;99.90;;;;;;5048822;28;20575;-29
2022/06/10 07:03:50;;;;;;;9.68;6.05;;;16.10;99.90;;;;;;5044447;28;20500;-29
2022/06/10 07:06:16;;;;;;;10.40;5.53;;;16.10;99.90;;;;;;5047414;28;20045;-29
2022/06/10 07:08:42;;;;;;;10.23;5.88;;;16.20;99.90;;;;;;5049239;28;20040;-29
2022/06/10 07:11:09;;;;;;;8.27;6.68;;;16.30;99.90;;;;;;5021333;28;20041;-30
2022/06/10 07:13:36;;;;;;;9.02;6.20;;;16.30;99.90;;;;;;5043392;28;20055;-29
2022/06/10 07:16:02;;;;;;;13.77;6.63;;;16.40;99.90;;;;;;5025426;28;20048;-29
2022/06/10 07:18:30;;;;;;;11.25;6.07;;;16.40;99.90;;;;;;5022064;28;20563;-29
2022/06/10 07:20:56;;;;;;;10.38;6.57;;;16.50;99.90;;;;;;5046634;28;20037;-29
2022/06/10 07:23:22;;;;;;;11.82;6.47;;;16.40;99.90;;;;;;5040410;28;20040;-29
2022/06/10 07:25:48;;;;;;;15.00;7.45;;;16.50;99.90;;;;;;5048917;28;20412;-29
2022/06/10 07:28:14;;;;;;;10.10;6.60;;;16.50;99.90;;;;;;5042842;28;20484;-29
2022/06/10 07:30:41;;;;;;;11.18;7.15;;;16.70;99.90;;;;;;5038517;28;20048;-29
2022/06/10 07:33:07;;;;;;;10.10;6.43;;;16.90;99.90;;;;;;5031081;28;20080;-30
2022/06/10 07:35:34;;;;;;;10.00;6.75;;;17.00;99.90;;;;;;5030031;28;20506;-29
2022/06/10 07:38:01;;;;;;;9.45;6.38;;;17.10;99.90;;;;;;5041118;28;20041;-29
2022/06/10 07:43:31;;;;;;;7.85;6.13;;;17.20;99.90;;;;;;5043529;28;20115;-29
2022/06/10 07:46:00;;;;;;;8.93;5.75;;;17.40;99.90;;;;;;5045295;28;20044;-29
2022/06/10 07:48:26;;;;;;;10.55;5.10;;;17.50;99.90;;;;;;5043499;28;20447;-29
2022/06/10 07:50:52;;;;;;;9.48;5.72;;;17.80;99.90;;;;;;5002875;28;20106;-29
2022/06/10 07:53:19;;;;;;;8.75;5.15;;;18.00;99.90;;;;;;5053956;28;20092;-29
2022/06/10 07:55:46;;;;;;;8.02;5.07;;;18.20;99.90;;;;;;5042635;28;20044;-29
2022/06/10 07:58:14;;;;;;;10.52;5.57;;;18.30;99.90;;;;;;5014130;28;20106;-29
2022/06/10 08:00:40;;;;;;;8.65;5.18;;;18.30;99.90;;;;;;5031433;28;20117;-29
2022/06/10 08:03:06;;;;;;;9.48;5.25;;;18.30;99.90;;;;;;5026757;28;20171;-29
2022/06/10 08:05:32;;;;;;;8.50;5.47;;;18.30;99.90;;;;;;5050196;28;20041;-28
2022/06/10 08:08:01;;;;;;;12.57;4.88;;;18.40;99.90;;;;;;5029217;28;20523;-28
2022/06/10 08:10:31;;;;;;;7.47;4.93;;;18.40;99.90;;;;;;5053109;28;20045;-29
2022/06/10 08:12:57;;;;;;;6.22;4.97;;;18.40;99.90;;;;;;5051118;28;20155;-28
2022/06/10 08:15:24;;;;;;;11.27;5.20;;;18.40;99.90;;;;;;5053329;28;20094;-29
2022/06/10 08:17:51;;;;;;;7.22;5.18;;;18.50;99.90;;;;;;5051906;28;20073;-29
2022/06/10 08:20:20;;;;;;;8.25;4.72;;;18.50;99.90;;;;;;5029686;28;20361;-28
2022/06/10 08:22:46;;;;;;;8.68;5.00;;;18.60;99.90;;;;;;5044889;28;20041;-28
2022/06/10 08:25:14;;;;;;;10.63;5.20;;;18.50;99.90;;;;;;5035090;28;20045;-28
2022/06/10 08:27:40;;;;;;;12.65;5.05;;;18.50;99.90;;;;;;5030024;28;20066;-28
2022/06/10 08:30:08;;;;;;;9.35;5.03;;;18.50;99.90;;;;;;5045983;28;20099;-29
2022/06/10 08:32:34;;;;;;;15.70;4.75;;;18.50;99.90;;;;;;5028542;28;20084;-29
2022/06/10 08:35:00;;;;;;;7.63;5.03;;;18.50;99.90;;;;;;5038412;28;20484;-29
2022/06/10 08:37:26;;;;;;;7.75;4.97;;;18.50;99.90;;;;;;5044514;28;20116;-29
2022/06/10 08:39:52;;;;;;;9.07;5.07;;;18.70;99.90;;;;;;5050705;28;20591;-29
2022/06/10 08:42:39;;;;;;;9.32;5.25;;;18.80;99.90;;;;;;5031565;28;20119;-29
2022/06/10 08:45:22;;;;;;;7.53;5.55;;;18.90;99.90;;;;;;5048546;28;20505;-29
2022/06/10 08:47:58;;;;;;;6.93;4.43;;;19.00;99.90;;;;;;5043899;28;20119;-29
2022/06/10 08:50:48;;;;;;;7.68;4.85;;;19.00;99.90;;;;;;5046821;28;20041;-29
2022/06/10 08:53:36;;;;;;;9.82;4.75;;;19.00;99.90;;;;;;5021857;28;20504;-29
2022/06/10 08:56:26;;;;;;;7.82;5.55;;;19.00;99.90;;;;;;5047726;28;20033;-29
2022/06/10 08:59:01;;;;;;;9.30;5.20;;;19.20;99.90;;;;;;5031944;28;20092;-29
2022/06/10 09:01:30;;;;;;;6.78;4.68;;;19.20;99.90;;;;;;5021621;28;20128;-29
2022/06/10 09:04:19;;;;;;;8.05;4.90;;;19.10;99.90;;;;;;5024125;28;20093;-29
2022/06/10 09:06:51;;;;;;;9.38;5.15;;;19.10;99.90;;;;;;5041931;28;20450;-29
2022/06/10 09:09:20;;;;;;;9.20;5.45;;;19.10;99.90;;;;;;5043606;28;20114;-29
2022/06/10 09:11:56;;;;;;;7.07;5.15;;;19.10;99.90;;;;;;5026646;28;20041;-29
2022/06/10 09:14:25;;;;;;;7.65;5.90;;;19.10;99.90;;;;;;5044616;28;20041;-30
2022/06/10 09:16:57;;;;;;;8.25;6.25;;;19.20;99.90;;;;;;5041787;28;20085;-30
2022/06/10 09:19:41;;;;;;;11.68;5.57;;;19.30;99.90;;;;;;5036714;28;20124;-29
2022/06/10 09:22:15;;;;;;;6.90;5.10;;;19.30;99.90;;;;;;5046971;28;20048;-29
2022/06/10 09:25:12;;;;;;;9.70;5.43;;;19.40;99.90;;;;;;5019566;28;20037;-30
2022/06/10 09:27:55;;;;;;;10.10;4.57;;;19.30;99.90;;;;;;5004475;28;20041;-29
2022/06/10 09:30:38;;;;;;;11.50;5.18;;;19.20;99.90;;;;;;5042215;28;20447;-29
2022/06/10 09:33:30;;;;;;;10.63;5.57;;;19.00;99.90;;;;;;5046593;28;20401;-29
2022/06/10 09:36:33;;;;;;;8.10;4.43;;;18.90;99.90;;;;;;5041197;28;20091;-29
2022/06/10 09:39:04;;;;;;;5.53;4.03;;;18.80;99.90;;;;;;5009699;28;20382;-29
2022/06/10 09:41:33;;;;;;;8.13;4.35;;;18.80;99.90;;;;;;5039306;28;20033;-29
2022/06/10 09:44:05;;;;;;;14.90;4.60;;;18.80;99.90;;;;;;5010854;28;20068;-29
2022/06/10 09:46:58;;;;;;;10.23;4.35;;;18.90;99.90;;;;;;5024265;28;20332;-29
2022/06/10 09:49:34;;;;;;;9.82;3.72;;;19.00;99.90;;;;;;5049754;28;20036;-29
2022/06/10 09:52:26;;;;;;;10.05;3.80;;;19.10;99.90;;;;;;5016697;28;20049;-30
2022/06/10 09:55:10;;;;;;;8.10;3.95;;;19.20;99.90;;;;;;5046880;28;20059;-28
2022/06/10 09:58:09;;;;;;;8.80;3.95;;;19.30;99.90;;;;;;5046225;28;20281;-30
2022/06/10 10:00:59;;;;;;;8.50;3.75;;;19.30;99.90;;;;;;5031131;28;20041;-30
2022/06/10 10:03:34;;;;;;;9.02;3.53;;;19.30;99.90;;;;;;5009702;28;20087;-29
2022/06/10 10:06:10;;;;;;;8.07;3.63;;;19.10;99.90;;;;;;5042405;28;20048;-29
2022/06/10 10:08:45;;;;;;;7.60;3.42;;;19.00;99.90;;;;;;5006829;28;20044;-29
2022/06/10 10:11:26;;;;;;;9.10;3.67;;;19.10;99.90;;;;;;5033148;28;20045;-29
2022/06/10 10:14:22;;;;;;;6.50;3.40;;;19.40;99.90;;;;;;5042449;28;20470;-30
2022/06/10 10:16:56;;;;;;;7.97;3.53;;;19.90;99.90;;;;;;5028091;28;20485;-29
2022/06/10 10:19:37;;;;;;;4.95;3.42;;;20.30;99.90;;;;;;5017190;28;20596;-29
2022/06/10 10:22:57;;;;;;;7.10;3.22;;;20.70;99.90;;;;;;5023187;28;20084;-29
2022/06/10 10:25:25;;;;;;;7.72;3.50;;;21.00;99.90;;;;;;4984433;28;20037;-29
2022/06/10 10:27:52;;;;;;;9.38;3.55;;;21.20;99.90;;;;;;5046847;28;20515;-30
2022/06/10 10:30:35;;;;;;;8.85;3.45;;;21.50;99.90;;;;;;5046531;28;20070;-30
2022/06/10 10:33:09;;;;;;;5.97;3.40;;;21.70;99.90;;;;;;5044131;28;20048;-30
2022/06/10 10:35:43;;;;;;;8.48;3.20;;;21.90;99.90;;;;;;5048031;28;20037;-30
2022/06/10 10:38:29;;;;;;;8.00;3.83;;;22.40;99.90;;;;;;5050366;28;20025;-30
2022/06/10 10:40:55;;;;;;;6.18;3.60;;;22.60;99.90;;;;;;5043993;28;20037;-30
2022/06/10 10:43:25;;;;;;;10.07;4.53;;;23.20;99.90;;;;;;5046683;28;20040;-29
2022/06/10 10:46:00;;;;;;;7.55;3.83;;;23.60;99.90;;;;;;5039534;28;20465;-29
2022/06/10 10:48:35;;;;;;;5.88;3.88;;;23.50;99.90;;;;;;5046122;28;20046;-31
2022/06/10 10:51:13;;;;;;;6.57;3.13;;;23.90;99.90;;;;;;5046598;28;20132;-31
2022/06/10 10:53:56;;;;;;;8.27;4.20;;;24.30;99.90;;;;;;4995723;28;20481;-30
2022/06/10 10:56:31;;;;;;;8.25;3.97;;;24.60;99.90;;;;;;5045803;28;20114;-30
2022/06/10 10:58:58;;;;;;;7.95;4.18;;;24.50;99.90;;;;;;5041562;28;20041;-30
2022/06/10 11:01:43;;;;;;;6.70;4.57;;;24.30;99.90;;;;;;5047024;28;20048;-30
2022/06/10 11:04:23;;;;;;;7.40;4.18;;;24.50;99.40;;;;;;5028527;28;20030;-30
2022/06/10 11:06:59;;;;;;;7.80;4.20;;;24.50;99.90;;;;;;5049835;28;20033;-29
2022/06/10 11:09:26;;;;;;;8.75;3.80;;;24.60;99.90;;;;;;5040236;28;20044;-30
2022/06/10 11:11:54;;;;;;;6.72;3.72;;;24.80;99.90;;;;;;5040623;28;20028;-30
2022/06/10 11:14:35;;;;;;;10.00;3.58;;;24.30;99.90;;;;;;5048278;28;20129;-30
2022/06/10 11:17:11;;;;;;;6.00;3.35;;;23.90;99.90;;;;;;5042759;28;20045;-30
2022/06/10 11:19:37;;;;;;;6.35;3.20;;;23.60;99.90;;;;;;5026602;28;20444;-30
2022/06/10 11:22:12;;;;;;;5.28;3.28;;;23.50;99.90;;;;;;5041980;28;20037;-29
2022/06/10 11:24:46;;;;;;;8.82;3.22;;;23.50;99.90;;;;;;5046644;28;20412;-30
2022/06/10 11:27:38;;;;;;;7.63;3.33;;;23.80;99.90;;;;;;5046347;28;20048;-30
2022/06/10 11:30:14;;;;;;;7.47;2.88;;;24.20;99.90;;;;;;5040521;28;20489;-29
2022/06/10 11:32:49;;;;;;;5.25;3.03;;;24.50;99.90;;;;;;5043774;28;20092;-30
2022/06/10 11:35:31;;;;;;;7.55;2.97;;;24.80;99.90;;;;;;5044613;28;20033;-30
2022/06/10 11:38:08;;;;;;;6.68;2.97;;;24.80;99.10;;;;;;5029588;28;20037;-30
2022/06/10 11:40:52;;;;;;;5.50;3.20;;;24.90;97.50;;;;;;5043460;28;20098;-30
2022/06/10 11:43:35;;;;;;;6.10;3.00;;;24.60;93.70;;;;;;5042787;28;20047;-30
2022/06/10 11:46:20;;;;;;;6.60;3.33;;;24.50;97.30;;;;;;5030277;28;20128;-30
2022/06/10 11:49:03;;;;;;;8.48;3.40;;;24.60;98.10;;;;;;5043556;28;20063;-30
2022/06/10 11:51:44;;;;;;;7.10;3.22;;;24.70;96.50;;;;;;5043529;28;20048;-29
2022/06/10 11:54:40;;;;;;;7.07;3.28;;;24.50;97.70;;;;;;5040214;28;20037;-29
2022/06/10 12:00:14;;;;;;;6.88;3.13;;;24.20;98.10;;;;;;5041259;28;20041;-29
2022/06/10 12:02:50;;;;;;;9.65;3.47;;;23.90;97.60;;;;;;5046457;28;20413;-29
2022/06/10 12:05:55;;;;;;;9.52;3.17;;;23.60;99.40;;;;;;5046017;28;20117;-29
2022/06/10 12:08:33;;;;;;;8.57;3.10;;;23.30;99.90;;;;;;5046037;28;20120;-30
2022/06/10 12:11:14;;;;;;;11.82;3.72;;;23.00;99.90;;;;;;5047429;28;20155;-30
2022/06/10 12:13:48;;;;;;;6.70;3.38;;;22.70;99.90;;;;;;5037821;28;20037;-30
2022/06/10 12:16:14;;;;;;;8.80;3.25;;;22.50;99.90;;;;;;5035542;28;20049;-30
2022/06/10 12:18:45;;;;;;;4.35;2.72;;;22.40;99.90;;;;;;5046092;28;20041;-30
2022/06/10 12:21:21;;;;;;;5.78;2.90;;;22.50;99.90;;;;;;5045653;28;20110;-30
2022/06/10 12:23:47;;;;;;;5.80;2.90;;;22.60;99.90;;;;;;5042143;28;20119;-30
2022/06/10 12:26:16;;;;;;;6.32;2.90;;;22.80;99.90;;;;;;5043102;28;20041;-30
2022/06/10 12:28:57;;;;;;;7.68;3.22;;;22.90;99.90;;;;;;5028164;28;20488;-29
2022/06/10 12:31:42;;;;;;;5.22;3.00;;;23.00;99.90;;;;;;5020155;28;20514;-29
2022/06/10 12:34:09;;;;;;;10.23;3.15;;;23.00;99.90;;;;;;5046727;28;20044;-29
2022/06/10 12:36:56;;;;;;;7.63;3.08;;;22.80;99.90;;;;;;5044491;28;20037;-29
2022/06/10 12:39:26;;;;;;;7.70;3.13;;;22.70;99.90;;;;;;5042647;28;20500;-29
2022/06/10 12:42:14;;;;;;;6.72;2.80;;;22.50;99.90;;;;;;5040222;28;20446;-29
2022/06/10 12:44:47;;;;;;;7.90;3.10;;;22.40;99.90;;;;;;5038690;28;20045;-29
2022/06/10 12:47:18;;;;;;;5.60;2.83;;;22.40;99.90;;;;;;5037644;28;20041;-29
2022/06/10 12:49:46;;;;;;;7.60;2.83;;;22.50;99.90;;;;;;5042715;28;20095;-28
2022/06/10 12:52:27;;;;;;;8.10;2.75;;;22.70;99.90;;;;;;5044141;28;20036;-29
2022/06/10 12:55:03;;;;;;;4.57;2.60;;;22.90;99.90;;;;;;5046648;28;20049;-29
2022/06/10 12:57:36;;;;;;;4.03;2.80;;;23.10;99.90;;;;;;5026212;28;20098;-29
2022/06/10 13:00:41;;;;;;;8.05;2.60;;;23.20;99.90;;;;;;5042864;28;20919;-30
2022/06/10 13:03:13;;;;;;;6.07;2.53;;;23.30;99.90;;;;;;5003498;28;20045;-30
2022/06/10 13:05:47;;;;;;;6.07;2.85;;;23.40;99.90;;;;;;5039119;28;20033;-30
2022/06/10 13:08:47;;;;;;;5.95;2.80;;;23.50;99.90;;;;;;5025104;28;20037;-30
2022/06/10 13:11:30;;;;;;;5.47;2.45;;;23.50;99.90;;;;;;5043313;28;20045;-30
2022/06/10 13:14:16;;;;;;;6.15;2.40;;;23.50;99.90;;;;;;5035935;28;20086;-29
2022/06/10 13:17:02;;;;;;;5.95;2.50;;;23.50;99.90;;;;;;5035707;28;20042;-29
2022/06/10 13:19:40;;;;;;;5.03;2.47;;;23.50;99.50;;;;;;5017315;28;20039;-29
2022/06/10 13:22:17;;;;;;;3.15;2.60;;;23.50;99.90;;;;;;5041660;28;20043;-30
2022/06/10 13:24:53;;;;;;;5.97;3.10;;;23.40;99.90;;;;;;5026549;28;20047;-29
2022/06/10 13:27:39;;;;;;;6.72;3.03;;;23.50;99.90;;;;;;5047348;28;20037;-29